sensor_id;sensor_type;location;lat;lon;timestamp;P1;durP1;ratioP1;P2;durP2;ratioP2
72406;SDS011;60396;47.550;18.828;2022-07-29T00:01:58;7.05;;;2.67;;
72406;SDS011;60396;47.550;18.828;2022-07-29T00:04:26;9.52;;;2.50;;
72406;SDS011;60396;47.550;18.828;2022-07-29T00:06:54;6.80;;;2.20;;
72406;SDS011;60396;47.550;18.828;2022-07-29T00:09:22;6.60;;;2.80;;
72406;SDS011;60396;47.550;18.828;2022-07-29T00:11:50;10.57;;;2.75;;
72406;SDS011;60396;47.550;18.828;2022-07-29T00:14:18;7.85;;;2.47;;
72406;SDS011;60396;47.550;18.828;2022-07-29T00:16:46;10.40;;;2.70;;
72406;SDS011;60396;47.550;18.828;2022-07-29T00:19:14;6.20;;;2.50;;
72406;SDS011;60396;47.550;18.828;2022-07-29T00:21:41;10.93;;;3.20;;
72406;SDS011;60396;47.550;18.828;2022-07-29T00:24:09;11.00;;;2.72;;
72406;SDS011;60396;47.550;18.828;2022-07-29T00:26:37;7.93;;;2.50;;
72406;SDS011;60396;47.550;18.828;2022-07-29T00:29:04;6.05;;;2.40;;
72406;SDS011;60396;47.550;18.828;2022-07-29T00:31:52;7.47;;;2.40;;
72406;SDS011;60396;47.550;18.828;2022-07-29T00:34:20;5.80;;;2.47;;
72406;SDS011;60396;47.550;18.828;2022-07-29T00:37:07;8.70;;;2.80;;
72406;SDS011;60396;47.550;18.828;2022-07-29T00:39:34;8.70;;;2.33;;
72406;SDS011;60396;47.550;18.828;2022-07-29T00:42:03;5.45;;;2.45;;
72406;SDS011;60396;47.550;18.828;2022-07-29T00:44:35;8.18;;;2.97;;
72406;SDS011;60396;47.550;18.828;2022-07-29T00:47:07;8.30;;;2.30;;
72406;SDS011;60396;47.550;18.828;2022-07-29T00:49:36;7.22;;;2.97;;
72406;SDS011;60396;47.550;18.828;2022-07-29T00:52:09;5.90;;;2.30;;
72406;SDS011;60396;47.550;18.828;2022-07-29T00:54:38;6.45;;;2.65;;
72406;SDS011;60396;47.550;18.828;2022-07-29T00:57:11;6.20;;;2.55;;
72406;SDS011;60396;47.550;18.828;2022-07-29T00:59:39;7.23;;;2.40;;
72406;SDS011;60396;47.550;18.828;2022-07-29T01:02:07;9.23;;;2.60;;
72406;SDS011;60396;47.550;18.828;2022-07-29T01:04:35;6.95;;;2.40;;
72406;SDS011;60396;47.550;18.828;2022-07-29T01:07:03;6.55;;;2.30;;
72406;SDS011;60396;47.550;18.828;2022-07-29T01:09:32;9.10;;;3.17;;
72406;SDS011;60396;47.550;18.828;2022-07-29T01:12:14;5.73;;;2.37;;
72406;SDS011;60396;47.550;18.828;2022-07-29T01:14:46;8.77;;;3.25;;
72406;SDS011;60396;47.550;18.828;2022-07-29T01:17:24;7.10;;;2.83;;
72406;SDS011;60396;47.550;18.828;2022-07-29T01:26:09;6.60;;;3.00;;
72406;SDS011;60396;47.550;18.828;2022-07-29T01:39:56;6.60;;;3.13;;
72406;SDS011;60396;47.550;18.828;2022-07-29T01:42:30;8.38;;;3.33;;
72406;SDS011;60396;47.550;18.828;2022-07-29T01:47:41;8.27;;;3.10;;
72406;SDS011;60396;47.550;18.828;2022-07-29T01:50:13;12.73;;;3.72;;
72406;SDS011;60396;47.550;18.828;2022-07-29T01:52:52;8.40;;;3.90;;
72406;SDS011;60396;47.550;18.828;2022-07-29T01:55:22;8.25;;;3.87;;
72406;SDS011;60396;47.550;18.828;2022-07-29T01:57:54;8.55;;;3.72;;
72406;SDS011;60396;47.550;18.828;2022-07-29T02:00:24;9.48;;;3.95;;
72406;SDS011;60396;47.550;18.828;2022-07-29T02:02:53;8.68;;;3.60;;
72406;SDS011;60396;47.550;18.828;2022-07-29T02:05:21;8.53;;;3.83;;
72406;SDS011;60396;47.550;18.828;2022-07-29T02:07:50;7.60;;;3.83;;
72406;SDS011;60396;47.550;18.828;2022-07-29T02:10:20;8.65;;;4.57;;
72406;SDS011;60396;47.550;18.828;2022-07-29T02:12:52;9.48;;;3.47;;
72406;SDS011;60396;47.550;18.828;2022-07-29T02:15:22;9.10;;;3.90;;
72406;SDS011;60396;47.550;18.828;2022-07-29T02:17:53;8.77;;;3.87;;
72406;SDS011;60396;47.550;18.828;2022-07-29T02:20:23;13.85;;;4.07;;
72406;SDS011;60396;47.550;18.828;2022-07-29T02:22:52;7.82;;;3.97;;
72406;SDS011;60396;47.550;18.828;2022-07-29T02:25:22;7.78;;;3.80;;
72406;SDS011;60396;47.550;18.828;2022-07-29T02:27:51;10.00;;;3.83;;
72406;SDS011;60396;47.550;18.828;2022-07-29T02:30:19;8.13;;;3.57;;
72406;SDS011;60396;47.550;18.828;2022-07-29T02:32:47;9.57;;;3.45;;
72406;SDS011;60396;47.550;18.828;2022-07-29T02:35:16;8.68;;;3.65;;
72406;SDS011;60396;47.550;18.828;2022-07-29T02:37:44;9.43;;;3.85;;
72406;SDS011;60396;47.550;18.828;2022-07-29T02:40:33;10.60;;;4.20;;
72406;SDS011;60396;47.550;18.828;2022-07-29T02:43:02;9.77;;;3.80;;
72406;SDS011;60396;47.550;18.828;2022-07-29T02:45:31;10.45;;;4.25;;
72406;SDS011;60396;47.550;18.828;2022-07-29T02:48:00;10.07;;;4.00;;
72406;SDS011;60396;47.550;18.828;2022-07-29T02:50:34;8.10;;;4.28;;
72406;SDS011;60396;47.550;18.828;2022-07-29T02:53:29;8.60;;;4.05;;
72406;SDS011;60396;47.550;18.828;2022-07-29T02:55:56;8.60;;;4.17;;
72406;SDS011;60396;47.550;18.828;2022-07-29T03:01:02;8.43;;;4.05;;
72406;SDS011;60396;47.550;18.828;2022-07-29T03:03:37;8.77;;;4.00;;
72406;SDS011;60396;47.550;18.828;2022-07-29T03:06:05;14.23;;;4.03;;
72406;SDS011;60396;47.550;18.828;2022-07-29T03:08:33;8.07;;;3.93;;
72406;SDS011;60396;47.550;18.828;2022-07-29T03:11:02;8.95;;;3.70;;
72406;SDS011;60396;47.550;18.828;2022-07-29T03:13:30;9.90;;;3.87;;
72406;SDS011;60396;47.550;18.828;2022-07-29T03:15:58;8.07;;;3.80;;
72406;SDS011;60396;47.550;18.828;2022-07-29T03:18:26;9.07;;;3.83;;
72406;SDS011;60396;47.550;18.828;2022-07-29T03:20:54;9.60;;;3.97;;
72406;SDS011;60396;47.550;18.828;2022-07-29T03:23:22;9.23;;;3.75;;
72406;SDS011;60396;47.550;18.828;2022-07-29T03:25:51;7.95;;;4.07;;
72406;SDS011;60396;47.550;18.828;2022-07-29T03:28:20;7.87;;;3.50;;
72406;SDS011;60396;47.550;18.828;2022-07-29T03:30:53;9.02;;;4.20;;
72406;SDS011;60396;47.550;18.828;2022-07-29T03:33:21;9.33;;;4.33;;
72406;SDS011;60396;47.550;18.828;2022-07-29T03:35:49;8.70;;;4.20;;
72406;SDS011;60396;47.550;18.828;2022-07-29T03:38:17;9.68;;;4.70;;
72406;SDS011;60396;47.550;18.828;2022-07-29T03:40:52;9.90;;;3.70;;
72406;SDS011;60396;47.550;18.828;2022-07-29T03:43:22;7.28;;;3.47;;
72406;SDS011;60396;47.550;18.828;2022-07-29T03:45:51;10.90;;;4.33;;
72406;SDS011;60396;47.550;18.828;2022-07-29T03:48:21;7.12;;;3.87;;
72406;SDS011;60396;47.550;18.828;2022-07-29T03:50:49;9.05;;;4.10;;
72406;SDS011;60396;47.550;18.828;2022-07-29T03:53:18;9.65;;;4.32;;
72406;SDS011;60396;47.550;18.828;2022-07-29T03:55:47;8.63;;;3.92;;
72406;SDS011;60396;47.550;18.828;2022-07-29T03:58:17;7.53;;;4.13;;
72406;SDS011;60396;47.550;18.828;2022-07-29T04:00:46;8.05;;;3.62;;
72406;SDS011;60396;47.550;18.828;2022-07-29T04:03:14;10.18;;;4.18;;
72406;SDS011;60396;47.550;18.828;2022-07-29T04:05:42;8.75;;;3.90;;
72406;SDS011;60396;47.550;18.828;2022-07-29T04:08:09;8.48;;;4.05;;
72406;SDS011;60396;47.550;18.828;2022-07-29T04:10:37;9.57;;;3.50;;
72406;SDS011;60396;47.550;18.828;2022-07-29T04:13:05;8.48;;;4.05;;
72406;SDS011;60396;47.550;18.828;2022-07-29T04:15:33;11.70;;;4.07;;
72406;SDS011;60396;47.550;18.828;2022-07-29T04:18:01;9.18;;;3.58;;
72406;SDS011;60396;47.550;18.828;2022-07-29T04:20:29;7.80;;;3.80;;
72406;SDS011;60396;47.550;18.828;2022-07-29T04:22:56;8.63;;;3.80;;
72406;SDS011;60396;47.550;18.828;2022-07-29T04:25:24;8.30;;;3.90;;
72406;SDS011;60396;47.550;18.828;2022-07-29T04:27:52;9.02;;;4.15;;
72406;SDS011;60396;47.550;18.828;2022-07-29T04:30:30;9.77;;;4.68;;
72406;SDS011;60396;47.550;18.828;2022-07-29T04:32:58;8.23;;;4.10;;
72406;SDS011;60396;47.550;18.828;2022-07-29T04:35:28;10.27;;;4.13;;
72406;SDS011;60396;47.550;18.828;2022-07-29T04:38:05;8.93;;;3.90;;
72406;SDS011;60396;47.550;18.828;2022-07-29T04:40:41;7.55;;;3.80;;
72406;SDS011;60396;47.550;18.828;2022-07-29T04:43:10;8.30;;;3.78;;
72406;SDS011;60396;47.550;18.828;2022-07-29T04:45:40;9.20;;;3.75;;
72406;SDS011;60396;47.550;18.828;2022-07-29T04:48:08;8.40;;;3.90;;
72406;SDS011;60396;47.550;18.828;2022-07-29T04:50:40;8.82;;;3.72;;
72406;SDS011;60396;47.550;18.828;2022-07-29T04:53:07;7.57;;;3.60;;
72406;SDS011;60396;47.550;18.828;2022-07-29T04:55:35;8.45;;;3.78;;
72406;SDS011;60396;47.550;18.828;2022-07-29T04:58:05;8.10;;;4.03;;
72406;SDS011;60396;47.550;18.828;2022-07-29T05:00:33;10.30;;;3.73;;
72406;SDS011;60396;47.550;18.828;2022-07-29T05:03:01;8.05;;;3.55;;
72406;SDS011;60396;47.550;18.828;2022-07-29T05:05:29;9.30;;;3.60;;
72406;SDS011;60396;47.550;18.828;2022-07-29T05:07:57;8.00;;;3.47;;
72406;SDS011;60396;47.550;18.828;2022-07-29T05:10:25;7.87;;;3.78;;
72406;SDS011;60396;47.550;18.828;2022-07-29T05:12:52;8.97;;;3.63;;
72406;SDS011;60396;47.550;18.828;2022-07-29T05:15:20;8.82;;;3.87;;
72406;SDS011;60396;47.550;18.828;2022-07-29T05:17:48;8.10;;;3.80;;
72406;SDS011;60396;47.550;18.828;2022-07-29T05:20:15;8.65;;;3.40;;
72406;SDS011;60396;47.550;18.828;2022-07-29T05:22:43;8.73;;;4.30;;
72406;SDS011;60396;47.550;18.828;2022-07-29T05:25:11;8.50;;;3.60;;
72406;SDS011;60396;47.550;18.828;2022-07-29T05:27:38;7.65;;;3.75;;
72406;SDS011;60396;47.550;18.828;2022-07-29T05:30:06;7.60;;;4.20;;
72406;SDS011;60396;47.550;18.828;2022-07-29T05:32:35;20.50;;;4.50;;
72406;SDS011;60396;47.550;18.828;2022-07-29T05:35:03;9.25;;;3.83;;
72406;SDS011;60396;47.550;18.828;2022-07-29T05:37:31;10.63;;;3.83;;
72406;SDS011;60396;47.550;18.828;2022-07-29T05:39:59;9.70;;;4.12;;
72406;SDS011;60396;47.550;18.828;2022-07-29T05:42:26;12.88;;;4.18;;
72406;SDS011;60396;47.550;18.828;2022-07-29T05:44:54;9.15;;;3.72;;
72406;SDS011;60396;47.550;18.828;2022-07-29T05:47:22;7.32;;;4.18;;
72406;SDS011;60396;47.550;18.828;2022-07-29T05:49:50;14.30;;;3.70;;
72406;SDS011;60396;47.550;18.828;2022-07-29T05:52:18;10.02;;;4.32;;
72406;SDS011;60396;47.550;18.828;2022-07-29T05:54:46;9.48;;;3.85;;
72406;SDS011;60396;47.550;18.828;2022-07-29T05:57:17;9.23;;;3.70;;
72406;SDS011;60396;47.550;18.828;2022-07-29T05:59:49;7.22;;;3.28;;
72406;SDS011;60396;47.550;18.828;2022-07-29T06:02:17;9.57;;;4.07;;
72406;SDS011;60396;47.550;18.828;2022-07-29T06:04:45;10.20;;;4.00;;
72406;SDS011;60396;47.550;18.828;2022-07-29T06:07:13;8.32;;;3.60;;
72406;SDS011;60396;47.550;18.828;2022-07-29T06:09:41;9.15;;;4.03;;
72406;SDS011;60396;47.550;18.828;2022-07-29T06:12:09;10.23;;;3.65;;
72406;SDS011;60396;47.550;18.828;2022-07-29T06:14:37;8.13;;;4.10;;
72406;SDS011;60396;47.550;18.828;2022-07-29T06:17:05;6.90;;;3.60;;
72406;SDS011;60396;47.550;18.828;2022-07-29T06:19:33;7.90;;;3.90;;
72406;SDS011;60396;47.550;18.828;2022-07-29T06:22:02;9.50;;;3.83;;
72406;SDS011;60396;47.550;18.828;2022-07-29T06:24:30;7.87;;;3.92;;
72406;SDS011;60396;47.550;18.828;2022-07-29T06:26:58;8.17;;;3.30;;
72406;SDS011;60396;47.550;18.828;2022-07-29T06:29:26;7.43;;;3.50;;
72406;SDS011;60396;47.550;18.828;2022-07-29T06:31:53;7.30;;;3.58;;
72406;SDS011;60396;47.550;18.828;2022-07-29T06:34:21;7.70;;;3.72;;
72406;SDS011;60396;47.550;18.828;2022-07-29T06:36:49;8.63;;;3.47;;
72406;SDS011;60396;47.550;18.828;2022-07-29T06:39:18;8.20;;;3.77;;
72406;SDS011;60396;47.550;18.828;2022-07-29T06:41:49;8.63;;;3.95;;
72406;SDS011;60396;47.550;18.828;2022-07-29T06:44:17;10.25;;;3.87;;
72406;SDS011;60396;47.550;18.828;2022-07-29T06:46:46;8.63;;;3.95;;
72406;SDS011;60396;47.550;18.828;2022-07-29T06:49:17;8.35;;;4.03;;
72406;SDS011;60396;47.550;18.828;2022-07-29T06:51:45;9.20;;;3.87;;
72406;SDS011;60396;47.550;18.828;2022-07-29T06:54:13;7.72;;;3.53;;
72406;SDS011;60396;47.550;18.828;2022-07-29T06:56:41;8.32;;;4.37;;
72406;SDS011;60396;47.550;18.828;2022-07-29T06:59:10;9.82;;;4.00;;
72406;SDS011;60396;47.550;18.828;2022-07-29T07:01:40;8.60;;;3.80;;
72406;SDS011;60396;47.550;18.828;2022-07-29T07:04:10;7.77;;;3.40;;
72406;SDS011;60396;47.550;18.828;2022-07-29T07:06:38;9.35;;;4.00;;
72406;SDS011;60396;47.550;18.828;2022-07-29T07:09:06;7.18;;;3.95;;
72406;SDS011;60396;47.550;18.828;2022-07-29T07:11:34;8.18;;;3.72;;
72406;SDS011;60396;47.550;18.828;2022-07-29T07:14:02;9.68;;;3.90;;
72406;SDS011;60396;47.550;18.828;2022-07-29T07:16:31;13.73;;;3.93;;
72406;SDS011;60396;47.550;18.828;2022-07-29T07:18:59;9.68;;;3.80;;
72406;SDS011;60396;47.550;18.828;2022-07-29T07:21:28;7.32;;;3.67;;
72406;SDS011;60396;47.550;18.828;2022-07-29T07:23:57;9.65;;;3.90;;
72406;SDS011;60396;47.550;18.828;2022-07-29T07:26:26;9.90;;;4.40;;
72406;SDS011;60396;47.550;18.828;2022-07-29T07:28:54;9.00;;;4.30;;
72406;SDS011;60396;47.550;18.828;2022-07-29T07:31:22;10.10;;;3.42;;
72406;SDS011;60396;47.550;18.828;2022-07-29T07:33:49;7.75;;;3.60;;
72406;SDS011;60396;47.550;18.828;2022-07-29T07:36:19;11.55;;;3.85;;
72406;SDS011;60396;47.550;18.828;2022-07-29T07:38:46;9.90;;;3.90;;
72406;SDS011;60396;47.550;18.828;2022-07-29T07:41:14;9.47;;;3.80;;
72406;SDS011;60396;47.550;18.828;2022-07-29T07:43:42;7.07;;;3.55;;
72406;SDS011;60396;47.550;18.828;2022-07-29T07:46:10;7.53;;;3.33;;
72406;SDS011;60396;47.550;18.828;2022-07-29T07:48:38;9.50;;;3.40;;
72406;SDS011;60396;47.550;18.828;2022-07-29T07:51:06;8.57;;;4.03;;
72406;SDS011;60396;47.550;18.828;2022-07-29T07:53:34;9.27;;;3.50;;
72406;SDS011;60396;47.550;18.828;2022-07-29T07:56:02;10.23;;;3.85;;
72406;SDS011;60396;47.550;18.828;2022-07-29T07:58:37;9.98;;;3.75;;
72406;SDS011;60396;47.550;18.828;2022-07-29T08:01:06;10.13;;;3.72;;
72406;SDS011;60396;47.550;18.828;2022-07-29T08:03:35;8.07;;;3.67;;
72406;SDS011;60396;47.550;18.828;2022-07-29T08:06:03;7.40;;;3.67;;
72406;SDS011;60396;47.550;18.828;2022-07-29T08:08:31;10.32;;;3.62;;
72406;SDS011;60396;47.550;18.828;2022-07-29T08:10:59;8.73;;;3.80;;
72406;SDS011;60396;47.550;18.828;2022-07-29T08:13:35;8.48;;;3.53;;
72406;SDS011;60396;47.550;18.828;2022-07-29T08:16:03;9.70;;;3.67;;
72406;SDS011;60396;47.550;18.828;2022-07-29T08:18:43;11.33;;;3.27;;
72406;SDS011;60396;47.550;18.828;2022-07-29T08:21:12;9.75;;;3.58;;
72406;SDS011;60396;47.550;18.828;2022-07-29T08:23:42;9.13;;;3.90;;
72406;SDS011;60396;47.550;18.828;2022-07-29T08:26:27;11.98;;;3.80;;
72406;SDS011;60396;47.550;18.828;2022-07-29T08:28:54;13.50;;;3.12;;
72406;SDS011;60396;47.550;18.828;2022-07-29T08:31:22;7.83;;;3.43;;
72406;SDS011;60396;47.550;18.828;2022-07-29T08:33:50;8.35;;;3.30;;
72406;SDS011;60396;47.550;18.828;2022-07-29T08:36:18;13.68;;;3.75;;
72406;SDS011;60396;47.550;18.828;2022-07-29T08:38:48;12.48;;;3.50;;
72406;SDS011;60396;47.550;18.828;2022-07-29T08:41:18;10.50;;;3.20;;
72406;SDS011;60396;47.550;18.828;2022-07-29T08:43:47;11.97;;;3.50;;
72406;SDS011;60396;47.550;18.828;2022-07-29T08:46:15;8.88;;;3.37;;
72406;SDS011;60396;47.550;18.828;2022-07-29T08:48:45;11.05;;;3.30;;
72406;SDS011;60396;47.550;18.828;2022-07-29T08:51:13;8.20;;;3.37;;
72406;SDS011;60396;47.550;18.828;2022-07-29T08:53:43;8.70;;;3.60;;
72406;SDS011;60396;47.550;18.828;2022-07-29T08:56:12;9.53;;;3.50;;
72406;SDS011;60396;47.550;18.828;2022-07-29T08:58:40;11.80;;;3.25;;
72406;SDS011;60396;47.550;18.828;2022-07-29T09:01:17;16.92;;;3.22;;
72406;SDS011;60396;47.550;18.828;2022-07-29T09:03:48;7.97;;;3.50;;
72406;SDS011;60396;47.550;18.828;2022-07-29T09:06:17;9.77;;;3.87;;
72406;SDS011;60396;47.550;18.828;2022-07-29T09:08:45;10.07;;;4.00;;
72406;SDS011;60396;47.550;18.828;2022-07-29T09:11:13;11.70;;;3.67;;
72406;SDS011;60396;47.550;18.828;2022-07-29T09:13:44;8.57;;;3.55;;
72406;SDS011;60396;47.550;18.828;2022-07-29T09:16:12;9.93;;;3.33;;
72406;SDS011;60396;47.550;18.828;2022-07-29T09:19:00;10.00;;;3.85;;
72406;SDS011;60396;47.550;18.828;2022-07-29T09:21:28;7.97;;;2.90;;
72406;SDS011;60396;47.550;18.828;2022-07-29T09:24:28;7.45;;;3.08;;
72406;SDS011;60396;47.550;18.828;2022-07-29T09:27:11;8.57;;;3.00;;
72406;SDS011;60396;47.550;18.828;2022-07-29T09:29:48;12.32;;;3.67;;
72406;SDS011;60396;47.550;18.828;2022-07-29T09:32:23;11.10;;;3.30;;
72406;SDS011;60396;47.550;18.828;2022-07-29T09:34:51;9.23;;;2.83;;
72406;SDS011;60396;47.550;18.828;2022-07-29T09:37:49;6.72;;;2.80;;
72406;SDS011;60396;47.550;18.828;2022-07-29T09:40:18;13.75;;;3.30;;
72406;SDS011;60396;47.550;18.828;2022-07-29T09:42:50;8.85;;;3.10;;
72406;SDS011;60396;47.550;18.828;2022-07-29T09:47:56;9.37;;;3.27;;
72406;SDS011;60396;47.550;18.828;2022-07-29T09:50:38;6.47;;;2.90;;
72406;SDS011;60396;47.550;18.828;2022-07-29T09:53:07;9.18;;;3.08;;
72406;SDS011;60396;47.550;18.828;2022-07-29T09:55:46;9.90;;;2.80;;
72406;SDS011;60396;47.550;18.828;2022-07-29T09:58:18;11.05;;;2.70;;
72406;SDS011;60396;47.550;18.828;2022-07-29T10:00:50;10.43;;;3.17;;
72406;SDS011;60396;47.550;18.828;2022-07-29T10:03:19;7.40;;;2.90;;
72406;SDS011;60396;47.550;18.828;2022-07-29T10:06:03;10.63;;;3.40;;
72406;SDS011;60396;47.550;18.828;2022-07-29T10:08:32;8.82;;;3.20;;
72406;SDS011;60396;47.550;18.828;2022-07-29T10:13:41;11.50;;;2.73;;
72406;SDS011;60396;47.550;18.828;2022-07-29T10:16:10;7.80;;;3.10;;
72406;SDS011;60396;47.550;18.828;2022-07-29T10:18:41;14.85;;;3.15;;
72406;SDS011;60396;47.550;18.828;2022-07-29T10:21:09;6.87;;;2.92;;
72406;SDS011;60396;47.550;18.828;2022-07-29T10:23:49;9.70;;;3.55;;
72406;SDS011;60396;47.550;18.828;2022-07-29T10:26:16;7.77;;;3.00;;
72406;SDS011;60396;47.550;18.828;2022-07-29T10:28:44;7.95;;;2.85;;
72406;SDS011;60396;47.550;18.828;2022-07-29T10:31:19;9.07;;;3.35;;
72406;SDS011;60396;47.550;18.828;2022-07-29T10:37:12;8.60;;;2.85;;
72406;SDS011;60396;47.550;18.828;2022-07-29T10:43:06;6.65;;;2.60;;
72406;SDS011;60396;47.550;18.828;2022-07-29T10:45:46;9.85;;;2.97;;
72406;SDS011;60396;47.550;18.828;2022-07-29T10:48:16;8.50;;;2.83;;
72406;SDS011;60396;47.550;18.828;2022-07-29T10:50:52;8.93;;;2.87;;
72406;SDS011;60396;47.550;18.828;2022-07-29T10:53:23;11.77;;;2.97;;
72406;SDS011;60396;47.550;18.828;2022-07-29T10:55:59;7.18;;;2.80;;
72406;SDS011;60396;47.550;18.828;2022-07-29T10:58:32;8.65;;;3.22;;
72406;SDS011;60396;47.550;18.828;2022-07-29T11:01:01;11.30;;;3.20;;
72406;SDS011;60396;47.550;18.828;2022-07-29T11:04:05;9.85;;;3.22;;
72406;SDS011;60396;47.550;18.828;2022-07-29T11:12:53;8.80;;;3.05;;
72406;SDS011;60396;47.550;18.828;2022-07-29T11:15:21;11.12;;;3.40;;
72406;SDS011;60396;47.550;18.828;2022-07-29T11:20:40;19.93;;;4.07;;
72406;SDS011;60396;47.550;18.828;2022-07-29T11:23:29;8.55;;;3.42;;
72406;SDS011;60396;47.550;18.828;2022-07-29T11:26:19;11.82;;;3.50;;
72406;SDS011;60396;47.550;18.828;2022-07-29T11:48:06;10.70;;;2.93;;
72406;SDS011;60396;47.550;18.828;2022-07-29T11:50:54;11.27;;;3.65;;
72406;SDS011;60396;47.550;18.828;2022-07-29T11:53:24;8.00;;;3.05;;
72406;SDS011;60396;47.550;18.828;2022-07-29T11:55:59;8.65;;;3.53;;
72406;SDS011;60396;47.550;18.828;2022-07-29T11:58:29;13.62;;;3.47;;
72406;SDS011;60396;47.550;18.828;2022-07-29T12:00:57;11.90;;;2.97;;
72406;SDS011;60396;47.550;18.828;2022-07-29T12:03:31;10.70;;;3.12;;
72406;SDS011;60396;47.550;18.828;2022-07-29T12:06:03;10.00;;;3.03;;
72406;SDS011;60396;47.550;18.828;2022-07-29T12:08:40;7.12;;;2.92;;
72406;SDS011;60396;47.550;18.828;2022-07-29T12:11:19;11.50;;;3.15;;
72406;SDS011;60396;47.550;18.828;2022-07-29T12:13:50;6.07;;;3.03;;
72406;SDS011;60396;47.550;18.828;2022-07-29T12:16:18;9.98;;;3.20;;
72406;SDS011;60396;47.550;18.828;2022-07-29T12:18:56;11.57;;;3.08;;
72406;SDS011;60396;47.550;18.828;2022-07-29T12:21:25;13.65;;;2.97;;
72406;SDS011;60396;47.550;18.828;2022-07-29T12:23:56;10.80;;;2.80;;
72406;SDS011;60396;47.550;18.828;2022-07-29T12:26:32;5.70;;;2.50;;
72406;SDS011;60396;47.550;18.828;2022-07-29T12:29:01;8.23;;;3.00;;
72406;SDS011;60396;47.550;18.828;2022-07-29T12:31:30;8.48;;;3.30;;
72406;SDS011;60396;47.550;18.828;2022-07-29T12:34:10;11.07;;;2.75;;
72406;SDS011;60396;47.550;18.828;2022-07-29T12:36:40;9.55;;;2.90;;
72406;SDS011;60396;47.550;18.828;2022-07-29T12:39:08;22.87;;;3.00;;
72406;SDS011;60396;47.550;18.828;2022-07-29T12:41:37;7.55;;;2.70;;
72406;SDS011;60396;47.550;18.828;2022-07-29T12:44:06;6.72;;;3.40;;
72406;SDS011;60396;47.550;18.828;2022-07-29T12:46:33;6.25;;;2.78;;
72406;SDS011;60396;47.550;18.828;2022-07-29T12:49:01;8.02;;;3.08;;
72406;SDS011;60396;47.550;18.828;2022-07-29T12:51:31;10.77;;;3.37;;
72406;SDS011;60396;47.550;18.828;2022-07-29T12:54:05;11.18;;;3.00;;
72406;SDS011;60396;47.550;18.828;2022-07-29T12:56:33;7.78;;;2.90;;
72406;SDS011;60396;47.550;18.828;2022-07-29T12:59:11;7.57;;;2.85;;
72406;SDS011;60396;47.550;18.828;2022-07-29T13:01:40;7.25;;;2.92;;
72406;SDS011;60396;47.550;18.828;2022-07-29T13:04:07;8.50;;;2.57;;
72406;SDS011;60396;47.550;18.828;2022-07-29T13:06:39;9.77;;;2.87;;
72406;SDS011;60396;47.550;18.828;2022-07-29T13:09:12;6.68;;;3.08;;
72406;SDS011;60396;47.550;18.828;2022-07-29T13:11:42;8.65;;;3.17;;
72406;SDS011;60396;47.550;18.828;2022-07-29T13:22:03;7.10;;;2.78;;
72406;SDS011;60396;47.550;18.828;2022-07-29T13:24:31;7.00;;;3.28;;
72406;SDS011;60396;47.550;18.828;2022-07-29T13:26:59;9.73;;;3.72;;
72406;SDS011;60396;47.550;18.828;2022-07-29T13:29:31;11.20;;;3.20;;
72406;SDS011;60396;47.550;18.828;2022-07-29T13:31:59;8.82;;;3.22;;
72406;SDS011;60396;47.550;18.828;2022-07-29T13:34:27;9.15;;;3.60;;
72406;SDS011;60396;47.550;18.828;2022-07-29T13:36:55;15.55;;;3.00;;
72406;SDS011;60396;47.550;18.828;2022-07-29T13:39:23;10.98;;;3.08;;
72406;SDS011;60396;47.550;18.828;2022-07-29T13:41:51;6.07;;;2.83;;
72406;SDS011;60396;47.550;18.828;2022-07-29T13:44:18;6.68;;;3.33;;
72406;SDS011;60396;47.550;18.828;2022-07-29T13:46:46;8.77;;;3.58;;
72406;SDS011;60396;47.550;18.828;2022-07-29T13:49:14;10.38;;;3.00;;
72406;SDS011;60396;47.550;18.828;2022-07-29T13:51:42;9.38;;;3.50;;
72406;SDS011;60396;47.550;18.828;2022-07-29T13:54:10;7.90;;;3.10;;
72406;SDS011;60396;47.550;18.828;2022-07-29T13:56:37;7.18;;;2.90;;
72406;SDS011;60396;47.550;18.828;2022-07-29T13:59:05;7.93;;;3.45;;
72406;SDS011;60396;47.550;18.828;2022-07-29T14:01:34;8.65;;;3.35;;
72406;SDS011;60396;47.550;18.828;2022-07-29T14:04:04;8.00;;;3.28;;
72406;SDS011;60396;47.550;18.828;2022-07-29T14:06:32;8.97;;;3.20;;
72406;SDS011;60396;47.550;18.828;2022-07-29T14:09:04;8.15;;;3.20;;
72406;SDS011;60396;47.550;18.828;2022-07-29T14:11:36;10.93;;;3.50;;
72406;SDS011;60396;47.550;18.828;2022-07-29T14:14:05;7.62;;;2.83;;
72406;SDS011;60396;47.550;18.828;2022-07-29T14:16:33;12.02;;;3.05;;
72406;SDS011;60396;47.550;18.828;2022-07-29T14:19:08;8.47;;;2.83;;
72406;SDS011;60396;47.550;18.828;2022-07-29T14:21:36;8.10;;;2.95;;
72406;SDS011;60396;47.550;18.828;2022-07-29T14:24:05;7.55;;;3.45;;
72406;SDS011;60396;47.550;18.828;2022-07-29T14:26:44;12.60;;;2.72;;
72406;SDS011;60396;47.550;18.828;2022-07-29T14:29:12;10.27;;;3.70;;
72406;SDS011;60396;47.550;18.828;2022-07-29T14:31:40;8.20;;;3.17;;
72406;SDS011;60396;47.550;18.828;2022-07-29T14:34:08;7.32;;;2.85;;
72406;SDS011;60396;47.550;18.828;2022-07-29T14:36:36;7.97;;;3.15;;
72406;SDS011;60396;47.550;18.828;2022-07-29T14:39:03;5.87;;;2.90;;
72406;SDS011;60396;47.550;18.828;2022-07-29T14:41:31;10.82;;;3.30;;
72406;SDS011;60396;47.550;18.828;2022-07-29T14:43:59;6.77;;;2.70;;
72406;SDS011;60396;47.550;18.828;2022-07-29T14:46:28;9.48;;;3.28;;
72406;SDS011;60396;47.550;18.828;2022-07-29T14:48:59;8.25;;;2.80;;
72406;SDS011;60396;47.550;18.828;2022-07-29T14:51:26;16.85;;;3.47;;
72406;SDS011;60396;47.550;18.828;2022-07-29T14:53:59;10.13;;;3.25;;
72406;SDS011;60396;47.550;18.828;2022-07-29T14:56:27;9.50;;;3.20;;
72406;SDS011;60396;47.550;18.828;2022-07-29T14:59:13;10.55;;;3.85;;
72406;SDS011;60396;47.550;18.828;2022-07-29T15:01:40;7.97;;;3.17;;
72406;SDS011;60396;47.550;18.828;2022-07-29T15:04:08;6.85;;;3.28;;
72406;SDS011;60396;47.550;18.828;2022-07-29T15:06:37;9.18;;;3.72;;
72406;SDS011;60396;47.550;18.828;2022-07-29T15:09:05;7.30;;;3.20;;
72406;SDS011;60396;47.550;18.828;2022-07-29T15:11:32;11.85;;;3.20;;
72406;SDS011;60396;47.550;18.828;2022-07-29T15:14:05;7.70;;;3.50;;
72406;SDS011;60396;47.550;18.828;2022-07-29T15:16:35;9.38;;;3.60;;
72406;SDS011;60396;47.550;18.828;2022-07-29T15:19:04;9.30;;;3.37;;
72406;SDS011;60396;47.550;18.828;2022-07-29T15:21:32;7.93;;;3.10;;
72406;SDS011;60396;47.550;18.828;2022-07-29T15:23:59;7.87;;;3.00;;
72406;SDS011;60396;47.550;18.828;2022-07-29T15:26:27;8.65;;;3.72;;
72406;SDS011;60396;47.550;18.828;2022-07-29T15:28:55;9.10;;;3.15;;
72406;SDS011;60396;47.550;18.828;2022-07-29T15:31:23;10.80;;;3.53;;
72406;SDS011;60396;47.550;18.828;2022-07-29T15:33:51;8.23;;;3.30;;
72406;SDS011;60396;47.550;18.828;2022-07-29T15:36:24;7.47;;;3.35;;
72406;SDS011;60396;47.550;18.828;2022-07-29T15:39:12;10.35;;;3.40;;
72406;SDS011;60396;47.550;18.828;2022-07-29T15:41:40;9.07;;;3.50;;
72406;SDS011;60396;47.550;18.828;2022-07-29T15:44:08;9.02;;;3.47;;
72406;SDS011;60396;47.550;18.828;2022-07-29T15:46:36;10.80;;;3.30;;
72406;SDS011;60396;47.550;18.828;2022-07-29T15:49:23;9.60;;;3.00;;
72406;SDS011;60396;47.550;18.828;2022-07-29T15:52:16;12.10;;;3.65;;
72406;SDS011;60396;47.550;18.828;2022-07-29T15:54:53;9.90;;;3.53;;
72406;SDS011;60396;47.550;18.828;2022-07-29T15:57:22;10.30;;;3.95;;
72406;SDS011;60396;47.550;18.828;2022-07-29T15:59:50;8.30;;;3.67;;
72406;SDS011;60396;47.550;18.828;2022-07-29T16:02:18;7.40;;;3.40;;